sensor_id;sensor_type;location;lat;lon;timestamp;pressure;altitude;pressure_sealevel;temperature;humidity
38530;BME280;24301;54.332;48.386;2023-02-28T03:55:37;98737.22;;;-4.16;72.07
38530;BME280;24301;54.332;48.386;2023-02-28T04:01:16;98742.94;;;-4.00;72.25
38530;BME280;24301;54.332;48.386;2023-02-28T04:03:45;98746.50;;;-3.97;72.85
38530;BME280;24301;54.332;48.386;2023-02-28T04:06:20;98738.84;;;-3.95;72.02
38530;BME280;24301;54.332;48.386;2023-02-28T04:08:47;98749.13;;;-3.95;72.57
38530;BME280;24301;54.332;48.386;2023-02-28T04:11:30;98744.88;;;-3.95;72.59
38530;BME280;24301;54.332;48.386;2023-02-28T04:13:57;98751.81;;;-3.92;73.02
38530;BME280;24301;54.332;48.386;2023-02-28T04:16:23;98749.44;;;-3.87;72.59
38530;BME280;24301;54.332;48.386;2023-02-28T04:18:49;98734.91;;;-3.87;72.32
38530;BME280;24301;54.332;48.386;2023-02-28T04:21:15;98739.13;;;-3.89;72.02
38530;BME280;24301;54.332;48.386;2023-02-28T04:23:41;98744.25;;;-3.89;72.63
38530;BME280;24301;54.332;48.386;2023-02-28T04:26:07;98742.63;;;-3.87;72.17
38530;BME280;24301;54.332;48.386;2023-02-28T04:28:33;98742.75;;;-3.84;72.74
38530;BME280;24301;54.332;48.386;2023-02-28T04:31:02;98742.13;;;-3.78;72.18
38530;BME280;24301;54.332;48.386;2023-02-28T04:33:28;98751.84;;;-3.69;72.05
38530;BME280;24301;54.332;48.386;2023-02-28T04:36:13;98726.56;;;-3.58;71.46
38530;BME280;24301;54.332;48.386;2023-02-28T04:38:40;98734.38;;;-3.55;71.59
38530;BME280;24301;54.332;48.386;2023-02-28T04:41:06;98735.16;;;-3.58;70.47
38530;BME280;24301;54.332;48.386;2023-02-28T04:43:32;98742.66;;;-3.64;70.77
38530;BME280;24301;54.332;48.386;2023-02-28T04:46:01;98734.94;;;-3.64;70.62
38530;BME280;24301;54.332;48.386;2023-02-28T04:48:28;98722.66;;;-3.71;70.01
38530;BME280;24301;54.332;48.386;2023-02-28T04:50:55;98707.69;;;-3.82;70.15
38530;BME280;24301;54.332;48.386;2023-02-28T04:53:21;98725.47;;;-3.88;69.34
38530;BME280;24301;54.332;48.386;2023-02-28T04:55:47;98725.19;;;-3.94;69.84
38530;BME280;24301;54.332;48.386;2023-02-28T04:58:14;98717.75;;;-3.88;69.68
38530;BME280;24301;54.332;48.386;2023-02-28T05:00:40;98724.06;;;-3.80;70.03
38530;BME280;24301;54.332;48.386;2023-02-28T05:03:06;98723.41;;;-3.74;69.63
38530;BME280;24301;54.332;48.386;2023-02-28T05:05:32;98721.06;;;-3.68;69.75
38530;BME280;24301;54.332;48.386;2023-02-28T05:07:58;98723.25;;;-3.56;69.89
38530;BME280;24301;54.332;48.386;2023-02-28T05:10:24;98729.06;;;-3.37;69.88
38530;BME280;24301;54.332;48.386;2023-02-28T05:12:49;98731.25;;;-3.24;69.26
38530;BME280;24301;54.332;48.386;2023-02-28T05:15:16;98723.63;;;-3.22;68.91
38530;BME280;24301;54.332;48.386;2023-02-28T05:17:42;98732.91;;;-3.26;68.69
38530;BME280;24301;54.332;48.386;2023-02-28T05:20:10;98732.91;;;-3.26;68.63
38530;BME280;24301;54.332;48.386;2023-02-28T05:22:40;98727.66;;;-3.29;68.10
38530;BME280;24301;54.332;48.386;2023-02-28T05:25:08;98734.66;;;-3.25;68.73
38530;BME280;24301;54.332;48.386;2023-02-28T05:27:34;98726.34;;;-3.18;68.12
38530;BME280;24301;54.332;48.386;2023-02-28T05:30:00;98722.16;;;-3.15;67.50
38530;BME280;24301;54.332;48.386;2023-02-28T05:32:29;98719.09;;;-3.05;68.19
38530;BME280;24301;54.332;48.386;2023-02-28T05:34:55;98715.63;;;-3.06;67.00
38530;BME280;24301;54.332;48.386;2023-02-28T05:37:21;98709.50;;;-3.09;67.37
38530;BME280;24301;54.332;48.386;2023-02-28T05:39:46;98720.00;;;-3.03;67.34
38530;BME280;24301;54.332;48.386;2023-02-28T05:42:12;98696.53;;;-3.12;66.81
38530;BME280;24301;54.332;48.386;2023-02-28T05:44:38;98695.25;;;-3.24;66.53
38530;BME280;24301;54.332;48.386;2023-02-28T05:47:04;98689.91;;;-3.30;66.86
38530;BME280;24301;54.332;48.386;2023-02-28T05:49:30;98691.13;;;-3.20;67.21
38530;BME280;24301;54.332;48.386;2023-02-28T05:51:55;98688.75;;;-3.14;67.13
38530;BME280;24301;54.332;48.386;2023-02-28T05:54:21;98691.97;;;-3.20;66.35
38530;BME280;24301;54.332;48.386;2023-02-28T05:56:47;98669.09;;;-3.12;66.22
38530;BME280;24301;54.332;48.386;2023-02-28T05:59:13;98675.44;;;-3.02;66.39
38530;BME280;24301;54.332;48.386;2023-02-28T06:01:41;98681.50;;;-3.01;66.04
38530;BME280;24301;54.332;48.386;2023-02-28T06:04:09;98679.84;;;-2.99;65.83
38530;BME280;24301;54.332;48.386;2023-02-28T06:06:36;98672.59;;;-2.85;66.12
38530;BME280;24301;54.332;48.386;2023-02-28T06:09:04;98668.88;;;-2.68;64.70
38530;BME280;24301;54.332;48.386;2023-02-28T06:11:31;98672.50;;;-2.37;65.32
38530;BME280;24301;54.332;48.386;2023-02-28T06:13:57;98667.13;;;-2.15;64.55
38530;BME280;24301;54.332;48.386;2023-02-28T06:16:29;98674.13;;;-2.11;64.76
38530;BME280;24301;54.332;48.386;2023-02-28T06:18:57;98671.53;;;-2.13;63.97
38530;BME280;24301;54.332;48.386;2023-02-28T06:21:24;98670.38;;;-2.21;63.60
38530;BME280;24301;54.332;48.386;2023-02-28T06:23:50;98666.28;;;-2.42;63.11
38530;BME280;24301;54.332;48.386;2023-02-28T06:26:16;98661.88;;;-2.46;63.92
38530;BME280;24301;54.332;48.386;2023-02-28T06:28:42;98656.63;;;-2.49;63.88
38530;BME280;24301;54.332;48.386;2023-02-28T06:31:10;98652.66;;;-2.39;63.79
38530;BME280;24301;54.332;48.386;2023-02-28T06:33:37;98649.94;;;-2.17;63.48
38530;BME280;24301;54.332;48.386;2023-02-28T06:36:03;98647.97;;;-1.96;62.90
38530;BME280;24301;54.332;48.386;2023-02-28T06:38:30;98648.47;;;-1.50;62.32
38530;BME280;24301;54.332;48.386;2023-02-28T06:40:58;98643.91;;;-0.95;60.77
38530;BME280;24301;54.332;48.386;2023-02-28T06:43:27;98630.72;;;-0.72;58.81
38530;BME280;24301;54.332;48.386;2023-02-28T06:45:57;98627.78;;;-0.16;58.51
38530;BME280;24301;54.332;48.386;2023-02-28T06:48:24;98614.88;;;2.29;56.82
38530;BME280;24301;54.332;48.386;2023-02-28T06:50:51;98616.22;;;3.64;52.53
38530;BME280;24301;54.332;48.386;2023-02-28T06:53:17;98610.22;;;3.68;50.15
38530;BME280;24301;54.332;48.386;2023-02-28T06:55:43;98601.66;;;3.85;48.31
38530;BME280;24301;54.332;48.386;2023-02-28T06:58:09;98602.81;;;4.35;47.96
38530;BME280;24301;54.332;48.386;2023-02-28T07:00:42;98588.25;;;6.10;45.58
38530;BME280;24301;54.332;48.386;2023-02-28T07:03:10;98588.09;;;7.83;42.56
38530;BME280;24301;54.332;48.386;2023-02-28T07:05:37;98571.50;;;9.28;40.82
38530;BME280;24301;54.332;48.386;2023-02-28T07:08:04;98583.66;;;10.76;38.79
38530;BME280;24301;54.332;48.386;2023-02-28T07:10:32;98592.03;;;11.33;36.16
38530;BME280;24301;54.332;48.386;2023-02-28T07:12:59;98578.19;;;11.96;34.98
38530;BME280;24301;54.332;48.386;2023-02-28T07:15:25;98568.47;;;11.65;33.87
38530;BME280;24301;54.332;48.386;2023-02-28T07:17:54;98569.66;;;11.88;33.59
38530;BME280;24301;54.332;48.386;2023-02-28T07:20:22;98564.00;;;12.35;32.98
38530;BME280;24301;54.332;48.386;2023-02-28T07:22:49;98565.53;;;12.74;31.66
38530;BME280;24301;54.332;48.386;2023-02-28T07:25:24;98578.13;;;13.22;31.34
38530;BME280;24301;54.332;48.386;2023-02-28T07:27:51;98573.69;;;14.05;30.69
38530;BME280;24301;54.332;48.386;2023-02-28T07:30:17;98550.69;;;13.00;30.01
38530;BME280;24301;54.332;48.386;2023-02-28T07:32:43;98568.47;;;12.00;30.02
38530;BME280;24301;54.332;48.386;2023-02-28T07:35:09;98577.34;;;11.96;31.16
38530;BME280;24301;54.332;48.386;2023-02-28T07:37:35;98569.09;;;11.75;30.02
38530;BME280;24301;54.332;48.386;2023-02-28T07:40:07;98577.47;;;12.24;29.41
38530;BME280;24301;54.332;48.386;2023-02-28T07:42:35;98550.53;;;12.46;29.86
38530;BME280;24301;54.332;48.386;2023-02-28T07:45:04;98567.09;;;12.51;29.40
38530;BME280;24301;54.332;48.386;2023-02-28T07:47:31;98557.50;;;12.48;28.97
38530;BME280;24301;54.332;48.386;2023-02-28T07:49:57;98553.19;;;12.76;28.83
38530;BME280;24301;54.332;48.386;2023-02-28T07:52:24;98548.88;;;12.72;28.32
38530;BME280;24301;54.332;48.386;2023-02-28T07:54:50;98546.91;;;12.80;28.15
38530;BME280;24301;54.332;48.386;2023-02-28T07:57:16;98526.47;;;13.15;27.95
38530;BME280;24301;54.332;48.386;2023-02-28T07:59:42;98542.91;;;12.35;27.63
38530;BME280;24301;54.332;48.386;2023-02-28T08:02:16;98544.06;;;12.26;27.25
38530;BME280;24301;54.332;48.386;2023-02-28T08:04:42;98541.47;;;12.56;27.91
38530;BME280;24301;54.332;48.386;2023-02-28T08:07:08;98531.84;;;13.12;27.38
38530;BME280;24301;54.332;48.386;2023-02-28T08:09:35;98522.56;;;13.27;27.52
38530;BME280;24301;54.332;48.386;2023-02-28T08:12:01;98519.28;;;12.92;26.43
38530;BME280;24301;54.332;48.386;2023-02-28T12:22:03;97954.06;;;0.48;44.02
38530;BME280;24301;54.332;48.386;2023-02-28T12:27:23;97944.69;;;0.63;43.83
38530;BME280;24301;54.332;48.386;2023-02-28T12:29:55;97950.78;;;0.65;44.13
38530;BME280;24301;54.332;48.386;2023-02-28T12:34:52;97933.72;;;0.89;44.36
38530;BME280;24301;54.332;48.386;2023-02-28T12:37:49;97931.09;;;0.87;43.81
38530;BME280;24301;54.332;48.386;2023-02-28T12:40:15;97916.44;;;0.89;43.56
38530;BME280;24301;54.332;48.386;2023-02-28T12:42:47;97906.03;;;0.81;43.76
38530;BME280;24301;54.332;48.386;2023-02-28T12:48:20;97900.84;;;0.78;42.96
38530;BME280;24301;54.332;48.386;2023-02-28T12:50:47;97887.81;;;0.67;43.50
38530;BME280;24301;54.332;48.386;2023-02-28T12:58:38;97867.22;;;0.81;44.10
38530;BME280;24301;54.332;48.386;2023-02-28T13:04:11;97858.53;;;0.70;42.88
38530;BME280;24301;54.332;48.386;2023-02-28T13:07:08;97861.13;;;0.73;43.19
38530;BME280;24301;54.332;48.386;2023-02-28T13:09:37;97849.06;;;0.75;43.79
38530;BME280;24301;54.332;48.386;2023-02-28T13:12:15;97843.91;;;0.78;43.47
38530;BME280;24301;54.332;48.386;2023-02-28T13:14:42;97836.16;;;0.77;43.73
38530;BME280;24301;54.332;48.386;2023-02-28T13:19:44;97807.66;;;0.72;43.98
38530;BME280;24301;54.332;48.386;2023-02-28T13:27:34;97806.50;;;0.31;43.03
38530;BME280;24301;54.332;48.386;2023-02-28T13:30:02;97796.19;;;0.34;43.80
38530;BME280;24301;54.332;48.386;2023-02-28T13:35:45;97782.38;;;0.29;43.88
38530;BME280;24301;54.332;48.386;2023-02-28T13:38:32;97778.00;;;0.23;43.07
38530;BME280;24301;54.332;48.386;2023-02-28T13:51:46;97742.31;;;-0.21;43.72
38530;BME280;24301;54.332;48.386;2023-02-28T13:57:07;97758.63;;;-0.28;44.27
38530;BME280;24301;54.332;48.386;2023-02-28T14:03:05;97749.13;;;-0.30;44.56
38530;BME280;24301;54.332;48.386;2023-02-28T14:05:33;97749.94;;;-0.37;45.17
38530;BME280;24301;54.332;48.386;2023-02-28T14:08:06;97740.34;;;-0.47;45.09
38530;BME280;24301;54.332;48.386;2023-02-28T14:10:48;97741.22;;;-0.45;44.67
38530;BME280;24301;54.332;48.386;2023-02-28T14:13:43;97732.53;;;-0.53;44.71
38530;BME280;24301;54.332;48.386;2023-02-28T14:16:13;97745.41;;;-0.60;45.48
38530;BME280;24301;54.332;48.386;2023-02-28T14:18:49;97734.97;;;-0.67;45.67
38530;BME280;24301;54.332;48.386;2023-02-28T14:24:02;97745.25;;;-0.72;45.99
38530;BME280;24301;54.332;48.386;2023-02-28T14:37:41;97714.44;;;-0.55;46.48
38530;BME280;24301;54.332;48.386;2023-02-28T14:40:21;97720.38;;;-0.64;46.42
38530;BME280;24301;54.332;48.386;2023-02-28T14:42:59;97714.34;;;-0.67;46.61
38530;BME280;24301;54.332;48.386;2023-02-28T14:45:32;97726.38;;;-0.65;47.26
38530;BME280;24301;54.332;48.386;2023-02-28T14:48:00;97722.97;;;-0.65;47.21
38530;BME280;24301;54.332;48.386;2023-02-28T14:50:35;97717.03;;;-0.56;47.01
38530;BME280;24301;54.332;48.386;2023-02-28T14:53:02;97729.06;;;-0.59;47.41
38530;BME280;24301;54.332;48.386;2023-02-28T14:55:34;97722.22;;;-0.53;47.03
38530;BME280;24301;54.332;48.386;2023-02-28T14:58:06;97716.16;;;-0.57;47.33
38530;BME280;24301;54.332;48.386;2023-02-28T15:00:42;97727.25;;;-0.66;47.37
38530;BME280;24301;54.332;48.386;2023-02-28T15:03:19;97724.59;;;-0.74;47.51
38530;BME280;24301;54.332;48.386;2023-02-28T15:05:58;97724.50;;;-0.80;47.83
38530;BME280;24301;54.332;48.386;2023-02-28T15:08:25;97717.66;;;-0.79;47.85
38530;BME280;24301;54.332;48.386;2023-02-28T15:11:03;97708.16;;;-0.83;47.98
38530;BME280;24301;54.332;48.386;2023-02-28T15:13:50;97719.34;;;-0.81;48.29
38530;BME280;24301;54.332;48.386;2023-02-28T15:18:54;97708.88;;;-0.95;48.22
38530;BME280;24301;54.332;48.386;2023-02-28T15:21:24;97727.75;;;-0.98;48.25
38530;BME280;24301;54.332;48.386;2023-02-28T15:26:54;97727.69;;;-1.04;48.40
38530;BME280;24301;54.332;48.386;2023-02-28T15:29:23;97723.44;;;-0.99;48.52
38530;BME280;24301;54.332;48.386;2023-02-28T15:31:55;97707.97;;;-0.99;48.21
38530;BME280;24301;54.332;48.386;2023-02-28T15:34:40;97702.81;;;-0.99;48.14
38530;BME280;24301;54.332;48.386;2023-02-28T15:39:50;97690.72;;;-1.03;48.31
38530;BME280;24301;54.332;48.386;2023-02-28T15:42:22;97696.69;;;-1.06;48.44
38530;BME280;24301;54.332;48.386;2023-02-28T15:44:49;97681.25;;;-1.03;48.86
38530;BME280;24301;54.332;48.386;2023-02-28T15:47:18;97681.19;;;-1.09;48.50
38530;BME280;24301;54.332;48.386;2023-02-28T15:49:58;97677.75;;;-1.08;48.71
38530;BME280;24301;54.332;48.386;2023-02-28T15:52:32;97688.09;;;-1.06;49.16
38530;BME280;24301;54.332;48.386;2023-02-28T15:55:08;97680.34;;;-1.09;49.35
38530;BME280;24301;54.332;48.386;2023-02-28T15:57:39;97675.09;;;-1.16;49.43
38530;BME280;24301;54.332;48.386;2023-02-28T16:00:11;97666.50;;;-1.14;49.63
38530;BME280;24301;54.332;48.386;2023-02-28T16:02:38;97663.00;;;-1.20;49.66
38530;BME280;24301;54.332;48.386;2023-02-28T16:07:34;97668.13;;;-1.24;50.21
38530;BME280;24301;54.332;48.386;2023-02-28T16:10:01;97667.22;;;-1.26;50.33
38530;BME280;24301;54.332;48.386;2023-02-28T16:12:30;97650.84;;;-1.28;50.88
38530;BME280;24301;54.332;48.386;2023-02-28T16:14:59;97640.56;;;-1.27;50.86
38530;BME280;24301;54.332;48.386;2023-02-28T16:17:32;97627.75;;;-1.22;51.05
38530;BME280;24301;54.332;48.386;2023-02-28T16:19:59;97613.94;;;-1.26;51.09
38530;BME280;24301;54.332;48.386;2023-02-28T16:22:25;97626.81;;;-1.29;51.12
38530;BME280;24301;54.332;48.386;2023-02-28T16:24:51;97613.81;;;-1.37;51.45
38530;BME280;24301;54.332;48.386;2023-02-28T16:29:46;97614.59;;;-1.44;51.78
38530;BME280;24301;54.332;48.386;2023-02-28T16:32:15;97595.66;;;-1.45;51.74
38530;BME280;24301;54.332;48.386;2023-02-28T16:34:42;97619.72;;;-1.47;52.00
38530;BME280;24301;54.332;48.386;2023-02-28T16:37:11;97614.50;;;-1.52;52.07
38530;BME280;24301;54.332;48.386;2023-02-28T16:39:37;97618.78;;;-1.52;52.15
38530;BME280;24301;54.332;48.386;2023-02-28T16:42:03;97614.50;;;-1.52;52.52
38530;BME280;24301;54.332;48.386;2023-02-28T16:44:35;97621.34;;;-1.54;52.84
38530;BME280;24301;54.332;48.386;2023-02-28T16:47:02;97618.84;;;-1.48;52.61
38530;BME280;24301;54.332;48.386;2023-02-28T16:49:29;97624.91;;;-1.42;52.60
38530;BME280;24301;54.332;48.386;2023-02-28T16:51:55;97618.06;;;-1.42;52.83
38530;BME280;24301;54.332;48.386;2023-02-28T16:54:21;97605.06;;;-1.51;52.99
38530;BME280;24301;54.332;48.386;2023-02-28T16:56:48;97604.13;;;-1.58;53.40
38530;BME280;24301;54.332;48.386;2023-02-28T16:59:18;97613.63;;;-1.52;53.47
38530;BME280;24301;54.332;48.386;2023-02-28T17:01:45;97617.03;;;-1.53;53.59
38530;BME280;24301;54.332;48.386;2023-02-28T17:04:11;97616.03;;;-1.66;53.98
38530;BME280;24301;54.332;48.386;2023-02-28T17:06:38;97623.75;;;-1.66;54.01
38530;BME280;24301;54.332;48.386;2023-02-28T17:09:03;97622.97;;;-1.62;53.97
38530;BME280;24301;54.332;48.386;2023-02-28T17:11:30;97623.78;;;-1.65;54.27
38530;BME280;24301;54.332;48.386;2023-02-28T17:13:56;97624.53;;;-1.75;54.68
38530;BME280;24301;54.332;48.386;2023-02-28T17:16:29;97625.38;;;-1.76;54.49
38530;BME280;24301;54.332;48.386;2023-02-28T17:19:02;97617.66;;;-1.76;54.80
38530;BME280;24301;54.332;48.386;2023-02-28T17:21:29;97620.22;;;-1.75;54.45
38530;BME280;24301;54.332;48.386;2023-02-28T17:23:55;97588.34;;;-1.83;54.63
38530;BME280;24301;54.332;48.386;2023-02-28T17:26:22;97609.00;;;-1.80;54.63
38530;BME280;24301;54.332;48.386;2023-02-28T17:28:51;97614.13;;;-1.81;54.76
38530;BME280;24301;54.332;48.386;2023-02-28T17:31:17;97615.84;;;-1.82;55.10
38530;BME280;24301;54.332;48.386;2023-02-28T17:33:44;97607.09;;;-1.93;55.17
38530;BME280;24301;54.332;48.386;2023-02-28T17:36:14;97613.91;;;-1.98;55.59
38530;BME280;24301;54.332;48.386;2023-02-28T17:38:40;97600.16;;;-1.97;55.29
38530;BME280;24301;54.332;48.386;2023-02-28T17:41:07;97591.53;;;-2.03;55.41
38530;BME280;24301;54.332;48.386;2023-02-28T17:43:34;97591.41;;;-2.12;55.67
38530;BME280;24301;54.332;48.386;2023-02-28T17:46:00;97595.59;;;-2.17;55.97
38530;BME280;24301;54.332;48.386;2023-02-28T17:48:26;97571.63;;;-2.14;55.92
38530;BME280;24301;54.332;48.386;2023-02-28T17:50:53;97589.69;;;-2.13;56.05
38530;BME280;24301;54.332;48.386;2023-02-28T17:53:19;97571.63;;;-2.14;56.03
38530;BME280;24301;54.332;48.386;2023-02-28T17:55:49;97575.75;;;-2.24;56.16
38530;BME280;24301;54.332;48.386;2023-02-28T17:58:15;97566.22;;;-2.30;56.41
38530;BME280;24301;54.332;48.386;2023-02-28T18:00:41;97549.13;;;-2.26;56.52
38530;BME280;24301;54.332;48.386;2023-02-28T18:03:07;97557.75;;;-2.26;56.86
38530;BME280;24301;54.332;48.386;2023-02-28T18:05:33;97563.78;;;-2.22;56.83
38530;BME280;24301;54.332;48.386;2023-02-28T18:07:59;97559.47;;;-2.25;56.88
38530;BME280;24301;54.332;48.386;2023-02-28T18:10:25;97555.16;;;-2.24;56.95
38530;BME280;24301;54.332;48.386;2023-02-28T18:12:53;97527.59;;;-2.32;56.99
38530;BME280;24301;54.332;48.386;2023-02-28T18:15:21;97555.13;;;-2.27;56.93
38530;BME280;24301;54.332;48.386;2023-02-28T18:17:48;97548.28;;;-2.25;57.05
38530;BME280;24301;54.332;48.386;2023-02-28T18:20:14;97550.00;;;-2.24;57.20
38530;BME280;24301;54.332;48.386;2023-02-28T18:22:41;97549.97;;;-2.27;57.26
38530;BME280;24301;54.332;48.386;2023-02-28T18:25:08;97546.53;;;-2.29;57.41
38530;BME280;24301;54.332;48.386;2023-02-28T18:27:36;97536.19;;;-2.33;57.67
38530;BME280;24301;54.332;48.386;2023-02-28T18:30:03;97535.34;;;-2.32;57.62
38530;BME280;24301;54.332;48.386;2023-02-28T18:32:30;97530.03;;;-2.41;57.60
38530;BME280;24301;54.332;48.386;2023-02-28T18:34:56;97546.31;;;-2.42;57.92
38530;BME280;24301;54.332;48.386;2023-02-28T18:37:22;97538.53;;;-2.48;58.24
38530;BME280;24301;54.332;48.386;2023-02-28T18:39:48;97522.22;;;-2.47;58.40
38530;BME280;24301;54.332;48.386;2023-02-28T18:42:14;97520.53;;;-2.45;58.56
38530;BME280;24301;54.332;48.386;2023-02-28T18:44:40;97528.19;;;-2.51;58.73
38530;BME280;24301;54.332;48.386;2023-02-28T18:47:06;97525.56;;;-2.54;59.29
38530;BME280;24301;54.332;48.386;2023-02-28T18:49:32;97512.69;;;-2.54;58.79
38530;BME280;24301;54.332;48.386;2023-02-28T18:52:01;97518.81;;;-2.48;58.93
38530;BME280;24301;54.332;48.386;2023-02-28T18:54:27;97527.38;;;-2.47;59.08
38530;BME280;24301;54.332;48.386;2023-02-28T18:56:53;97523.97;;;-2.46;59.16
38530;BME280;24301;54.332;48.386;2023-02-28T18:59:21;97524.03;;;-2.41;59.09
38530;BME280;24301;54.332;48.386;2023-02-28T19:01:47;97516.31;;;-2.41;59.12
38530;BME280;24301;54.332;48.386;2023-02-28T19:04:13;97511.16;;;-2.41;59.18
38530;BME280;24301;54.332;48.386;2023-02-28T19:06:39;97519.63;;;-2.50;59.35
38530;BME280;24301;54.332;48.386;2023-02-28T19:09:07;97504.94;;;-2.57;59.78
38530;BME280;24301;54.332;48.386;2023-02-28T19:11:33;97510.00;;;-2.64;60.13
38530;BME280;24301;54.332;48.386;2023-02-28T19:13:59;97493.72;;;-2.63;60.38
38530;BME280;24301;54.332;48.386;2023-02-28T19:16:26;97502.22;;;-2.67;60.52
38530;BME280;24301;54.332;48.386;2023-02-28T19:18:53;97506.50;;;-2.67;60.73
38530;BME280;24301;54.332;48.386;2023-02-28T19:21:21;97504.78;;;-2.67;61.03
38530;BME280;24301;54.332;48.386;2023-02-28T19:23:47;97491.16;;;-2.63;61.19
38530;BME280;24301;54.332;48.386;2023-02-28T19:26:19;97497.13;;;-2.62;61.01
38530;BME280;24301;54.332;48.386;2023-02-28T19:28:45;97497.13;;;-2.64;61.32
38530;BME280;24301;54.332;48.386;2023-02-28T19:31:19;97484.19;;;-2.68;61.95
38530;BME280;24301;54.332;48.386;2023-02-28T19:33:45;97492.72;;;-2.71;61.80
38530;BME280;24301;54.332;48.386;2023-02-28T19:36:13;97484.03;;;-2.79;62.13
38530;BME280;24301;54.332;48.386;2023-02-28T19:38:39;97472.81;;;-2.83;62.38
38530;BME280;24301;54.332;48.386;2023-02-28T19:41:07;97466.78;;;-2.86;62.81
38530;BME280;24301;54.332;48.386;2023-02-28T19:43:34;97481.28;;;-2.90;63.07
38530;BME280;24301;54.332;48.386;2023-02-28T19:46:00;97472.78;;;-2.86;63.01
38530;BME280;24301;54.332;48.386;2023-02-28T19:48:26;97467.72;;;-2.81;63.25
38530;BME280;24301;54.332;48.386;2023-02-28T19:50:57;97467.69;;;-2.83;63.20
38530;BME280;24301;54.332;48.386;2023-02-28T19:53:24;97458.25;;;-2.82;62.83
38530;BME280;24301;54.332;48.386;2023-02-28T19:55:51;97459.94;;;-2.84;63.39
38530;BME280;24301;54.332;48.386;2023-02-28T19:58:18;97449.59;;;-2.89;64.07
38530;BME280;24301;54.332;48.386;2023-02-28T20:00:44;97442.75;;;-2.89;63.97
38530;BME280;24301;54.332;48.386;2023-02-28T20:03:10;97448.75;;;-2.90;64.07
38530;BME280;24301;54.332;48.386;2023-02-28T20:05:36;97441.09;;;-2.83;64.16
38530;BME280;24301;54.332;48.386;2023-02-28T20:08:02;97435.16;;;-2.79;64.13
38530;BME280;24301;54.332;48.386;2023-02-28T20:10:28;97429.97;;;-2.81;64.28
38530;BME280;24301;54.332;48.386;2023-02-28T20:12:55;97438.53;;;-2.83;64.20
38530;BME280;24301;54.332;48.386;2023-02-28T20:15:21;97435.03;;;-2.87;63.92
38530;BME280;24301;54.332;48.386;2023-02-28T20:17:47;97426.50;;;-2.84;64.37
38530;BME280;24301;54.332;48.386;2023-02-28T20:20:13;97423.81;;;-2.91;64.42
38530;BME280;24301;54.332;48.386;2023-02-28T20:22:39;97419.56;;;-2.90;65.09
38530;BME280;24301;54.332;48.386;2023-02-28T20:25:06;97427.19;;;-2.95;64.82
38530;BME280;24301;54.332;48.386;2023-02-28T20:27:33;97421.25;;;-2.91;65.38
38530;BME280;24301;54.332;48.386;2023-02-28T20:30:00;97408.31;;;-2.97;64.98
38530;BME280;24301;54.332;48.386;2023-02-28T20:32:26;97408.31;;;-2.97;65.39
38530;BME280;24301;54.332;48.386;2023-02-28T20:34:52;97417.03;;;-2.89;65.77
38530;BME280;24301;54.332;48.386;2023-02-28T20:37:18;97409.31;;;-2.87;65.26
38530;BME280;24301;54.332;48.386;2023-02-28T20:39:44;97410.19;;;-2.86;65.93
38530;BME280;24301;54.332;48.386;2023-02-28T20:42:10;97399.94;;;-2.83;65.83
38530;BME280;24301;54.332;48.386;2023-02-28T20:44:36;97394.00;;;-2.79;65.93
38530;BME280;24301;54.332;48.386;2023-02-28T20:47:02;97396.59;;;-2.78;65.82
38530;BME280;24301;54.332;48.386;2023-02-28T20:49:28;97384.47;;;-2.85;66.16
38530;BME280;24301;54.332;48.386;2023-02-28T20:51:54;97393.03;;;-2.87;66.50
38530;BME280;24301;54.332;48.386;2023-02-28T20:54:20;97391.31;;;-2.89;66.60
38530;BME280;24301;54.332;48.386;2023-02-28T20:56:46;97381.78;;;-2.94;67.22
38530;BME280;24301;54.332;48.386;2023-02-28T20:59:12;97392.84;;;-3.00;67.55
38530;BME280;24301;54.332;48.386;2023-02-28T21:01:38;97377.44;;;-2.98;68.05
38530;BME280;24301;54.332;48.386;2023-02-28T21:04:07;97386.75;;;-3.07;68.08
38530;BME280;24301;54.332;48.386;2023-02-28T21:06:41;97380.66;;;-3.13;68.86
38530;BME280;24301;54.332;48.386;2023-02-28T21:09:09;97370.38;;;-3.13;68.80
38530;BME280;24301;54.332;48.386;2023-02-28T21:11:36;97374.69;;;-3.12;69.00
38530;BME280;24301;54.332;48.386;2023-02-28T21:14:05;97373.78;;;-3.14;68.66
38530;BME280;24301;54.332;48.386;2023-02-28T21:16:32;97371.25;;;-3.11;69.13
38530;BME280;24301;54.332;48.386;2023-02-28T21:18:58;97376.38;;;-3.13;69.10
38530;BME280;24301;54.332;48.386;2023-02-28T21:21:30;97382.44;;;-3.08;68.73
38530;BME280;24301;54.332;48.386;2023-02-28T21:23:57;97374.88;;;-2.98;69.37
38530;BME280;24301;54.332;48.386;2023-02-28T21:26:24;97370.69;;;-2.90;68.79
38530;BME280;24301;54.332;48.386;2023-02-28T21:28:51;97367.25;;;-2.91;69.34
38530;BME280;24301;54.332;48.386;2023-02-28T21:31:19;97367.16;;;-2.98;69.13
38530;BME280;24301;54.332;48.386;2023-02-28T21:33:45;97367.97;;;-3.03;69.32
38530;BME280;24301;54.332;48.386;2023-02-28T21:36:17;97369.63;;;-3.05;69.78
38530;BME280;24301;54.332;48.386;2023-02-28T21:38:45;97363.72;;;-2.99;69.50
38530;BME280;24301;54.332;48.386;2023-02-28T21:41:12;97362.91;;;-2.95;70.12
38530;BME280;24301;54.332;48.386;2023-02-28T21:43:38;97357.78;;;-2.92;70.09
38530;BME280;24301;54.332;48.386;2023-02-28T21:46:10;97356.00;;;-3.00;70.54
38530;BME280;24301;54.332;48.386;2023-02-28T21:48:37;97352.53;;;-3.01;70.54
38530;BME280;24301;54.332;48.386;2023-02-28T21:51:06;97341.41;;;-3.00;70.64
38530;BME280;24301;54.332;48.386;2023-02-28T21:53:34;97343.06;;;-3.04;71.02
38530;BME280;24301;54.332;48.386;2023-02-28T21:56:14;97338.75;;;-3.06;71.29
38530;BME280;24301;54.332;48.386;2023-02-28T21:58:40;97338.66;;;-3.14;71.29
38530;BME280;24301;54.332;48.386;2023-02-28T22:01:09;97330.84;;;-3.19;71.85
38530;BME280;24301;54.332;48.386;2023-02-28T22:03:36;97335.91;;;-3.25;72.54
38530;BME280;24301;54.332;48.386;2023-02-28T22:06:14;97336.84;;;-3.21;73.12
38530;BME280;24301;54.332;48.386;2023-02-28T22:08:42;97330.94;;;-3.15;72.91
38530;BME280;24301;54.332;48.386;2023-02-28T22:11:09;97330.91;;;-3.17;73.17
38530;BME280;24301;54.332;48.386;2023-02-28T22:13:36;97330.94;;;-3.15;73.42